createdAt,value
2022-10-09T00:00:11.130Z,97058.63
2022-10-09T00:02:39.111Z,97062.19
2022-10-09T00:05:07.912Z,97060.09
2022-10-09T00:07:35.857Z,97057.34
2022-10-09T00:10:04.337Z,97065.03
2022-10-09T00:12:32.367Z,97082.06
2022-10-09T00:15:00.261Z,97075.28
2022-10-09T00:17:29.531Z,97078.13
2022-10-09T00:19:57.422Z,97072.38
2022-10-09T00:22:25.300Z,97070.16
2022-10-09T00:24:53.217Z,97080.59
2022-10-09T00:27:22.913Z,97074.56
2022-10-09T00:29:50.931Z,97085.09
2022-10-09T00:32:19.021Z,97086.28
2022-10-09T00:34:48.285Z,97078.16
2022-10-09T00:37:16.293Z,97081.16
2022-10-09T00:39:44.414Z,97082.09
2022-10-09T00:42:13.073Z,97077.34
2022-10-09T00:44:54.189Z,97077.47
2022-10-09T00:47:26.656Z,97078.78
2022-10-09T00:49:58.848Z,97078.03
2022-10-09T00:52:27.390Z,97075.47
2022-10-09T00:54:55.990Z,97078.94
2022-10-09T00:57:24.011Z,97082.25
2022-10-09T00:59:51.994Z,97090.00
2022-10-09T01:02:19.941Z,97082.59
2022-10-09T01:04:47.857Z,97083.78
2022-10-09T01:07:32.896Z,97087.78
2022-10-09T01:10:04.545Z,97078.91
2022-10-09T01:12:42.377Z,97090.44
2022-10-09T01:15:16.916Z,97084.94
2022-10-09T01:17:51.593Z,97093.56
2022-10-09T01:20:28.635Z,97095.56
2022-10-09T01:23:18.394Z,97093.81
2022-10-09T01:25:55.462Z,97087.59
2022-10-09T01:28:25.271Z,97087.22
2022-10-09T01:30:53.194Z,97100.06
2022-10-09T01:33:21.143Z,97099.94
2022-10-09T01:35:49.101Z,97101.25
2022-10-09T01:38:17.796Z,97104.56
2022-10-09T01:40:45.920Z,97105.63
2022-10-09T01:43:13.981Z,97110.31
2022-10-09T01:45:45.101Z,97114.63
2022-10-09T01:48:16.474Z,97119.06
2022-10-09T01:50:46.270Z,97124.03
2022-10-09T01:53:16.969Z,97119.56
2022-10-09T01:55:47.390Z,97131.13
2022-10-09T01:58:19.890Z,97124.47
2022-10-09T02:00:54.207Z,97120.06
2022-10-09T02:03:23.033Z,97123.63
2022-10-09T02:05:52.469Z,97130.72
2022-10-09T02:08:21.219Z,97119.81
2022-10-09T02:10:51.446Z,97121.25
2022-10-09T02:13:19.567Z,97132.63
2022-10-09T02:15:51.610Z,97134.44
2022-10-09T02:18:24.839Z,97132.25
2022-10-09T02:20:56.976Z,97130.34
2022-10-09T02:23:25.711Z,97131.81
2022-10-09T02:25:54.319Z,97137.16
2022-10-09T02:28:22.897Z,97131.31
2022-10-09T02:30:58.397Z,97140.75
2022-10-09T02:33:32.512Z,97132.13
2022-10-09T02:36:00.546Z,97144.72
2022-10-09T02:38:28.753Z,97153.88
2022-10-09T02:40:59.038Z,97148.09
2022-10-09T02:43:26.954Z,97152.59
2022-10-09T02:45:56.230Z,97151.19
2022-10-09T02:48:24.117Z,97151.03
2022-10-09T02:50:51.997Z,97155.75
2022-10-09T02:53:19.851Z,97150.59
2022-10-09T02:55:47.769Z,97155.38
2022-10-09T02:58:15.704Z,97156.22
2022-10-09T03:00:43.600Z,97159.97
2022-10-09T03:03:12.837Z,97161.75
2022-10-09T03:05:40.750Z,97164.09
2022-10-09T03:08:08.663Z,97167.09
2022-10-09T03:10:38.202Z,97174.00
2022-10-09T03:13:06.431Z,97169.41
2022-10-09T03:15:34.964Z,97160.97
2022-10-09T03:18:02.901Z,97157.22
2022-10-09T03:20:32.260Z,97165.63
2022-10-09T03:23:00.129Z,97164.59
2022-10-09T03:25:28.057Z,97156.44
2022-10-09T03:27:55.942Z,97171.13
2022-10-09T03:30:23.817Z,97169.09
2022-10-09T03:32:51.777Z,97178.91
2022-10-09T03:35:19.719Z,97165.22
2022-10-09T03:37:48.987Z,97172.88
2022-10-09T03:40:16.959Z,97174.06
2022-10-09T03:42:44.859Z,97170.47
2022-10-09T03:45:12.738Z,97175.31
2022-10-09T03:47:40.664Z,97184.25
2022-10-09T03:50:09.504Z,97191.72
2022-10-09T03:52:37.419Z,97190.84
2022-10-09T03:55:07.691Z,97190.16
2022-10-09T03:57:36.425Z,97187.03
2022-10-09T04:00:05.167Z,97184.75
2022-10-09T04:02:33.451Z,97183.97
2022-10-09T04:05:01.558Z,97188.31
2022-10-09T04:07:29.482Z,97192.50
2022-10-09T04:09:57.409Z,97178.75
2022-10-09T04:12:26.703Z,97192.03
2022-10-09T04:14:54.589Z,97199.56
2022-10-09T04:17:22.486Z,97197.44
2022-10-09T04:19:50.383Z,97190.47
2022-10-09T04:22:18.274Z,97196.56
2022-10-09T04:24:46.283Z,97192.34
2022-10-09T04:27:14.284Z,97177.56
2022-10-09T04:29:43.561Z,97194.84
2022-10-09T04:32:11.534Z,97199.09
2022-10-09T04:34:39.418Z,97195.34
2022-10-09T04:37:07.286Z,97202.84
2022-10-09T04:39:35.184Z,97206.28
2022-10-09T04:42:03.066Z,97207.97
2022-10-09T04:44:30.959Z,97211.75
2022-10-09T04:47:00.195Z,97197.56
2022-10-09T04:49:28.178Z,97193.72
2022-10-09T04:51:56.063Z,97197.22
2022-10-09T04:54:24.002Z,97193.00
2022-10-09T04:56:51.918Z,97185.69
2022-10-09T04:59:19.787Z,97192.94
2022-10-09T05:01:47.856Z,97176.50
2022-10-09T05:04:17.170Z,97186.38
2022-10-09T05:06:45.123Z,97187.38
2022-10-09T05:09:13.013Z,97192.78
2022-10-09T05:11:42.804Z,97188.81
2022-10-09T05:14:11.105Z,97191.47
2022-10-09T05:17:08.362Z,97185.22
2022-10-09T05:19:28.397Z,97188.59
2022-10-09T05:21:56.324Z,97193.03
2022-10-09T05:24:24.187Z,97193.03
2022-10-09T05:26:52.761Z,97199.38
2022-10-09T05:29:20.684Z,97198.69
2022-10-09T05:31:49.757Z,97193.69
2022-10-09T05:34:17.822Z,97196.94
2022-10-09T05:36:47.107Z,97198.47
2022-10-09T05:39:15.045Z,97201.75
2022-10-09T05:41:42.917Z,97203.09
2022-10-09T05:44:10.916Z,97200.97
2022-10-09T05:46:38.843Z,97204.09
2022-10-09T05:49:07.240Z,97205.88
2022-10-09T05:51:36.535Z,97207.84
2022-10-09T05:54:06.795Z,97205.47
2022-10-09T05:56:36.864Z,97210.63
2022-10-09T05:59:05.918Z,97215.19
2022-10-09T06:01:35.499Z,97204.63
2022-10-09T06:04:04.067Z,97215.69
2022-10-09T06:06:34.266Z,97217.28
2022-10-09T06:09:02.165Z,97210.88
2022-10-09T06:11:33.777Z,97222.59
2022-10-09T06:14:03.253Z,97232.06
2022-10-09T06:16:33.416Z,97225.13
2022-10-09T06:19:02.496Z,97227.94
2022-10-09T06:21:30.516Z,97229.25
2022-10-09T06:23:59.954Z,97226.78
2022-10-09T06:26:30.127Z,97233.78
2022-10-09T06:29:00.686Z,97234.53
2022-10-09T06:31:29.829Z,97239.72
2022-10-09T06:34:00.083Z,97239.63
2022-10-09T06:36:30.087Z,97244.94
2022-10-09T06:38:59.860Z,97245.38
2022-10-09T06:41:28.582Z,97248.97
2022-10-09T06:43:57.505Z,97261.41
2022-10-09T06:46:28.593Z,97260.00
2022-10-09T06:48:56.753Z,97276.66
2022-10-09T06:51:24.985Z,97275.22
2022-10-09T06:53:54.041Z,97277.72
2022-10-09T06:56:23.973Z,97270.03
2022-10-09T06:58:51.880Z,97277.78
2022-10-09T07:01:21.998Z,97282.81
2022-10-09T07:03:56.332Z,97273.06
2022-10-09T07:06:25.424Z,97280.19
2022-10-09T07:08:54.778Z,97275.16
2022-10-09T07:11:24.106Z,97282.81
2022-10-09T07:13:54.488Z,97284.47
2022-10-09T07:16:23.486Z,97298.44
2022-10-09T07:18:52.998Z,97294.47
2022-10-09T07:21:20.967Z,97297.09
2022-10-09T07:23:48.905Z,97298.78
2022-10-09T07:26:19.120Z,97290.78
2022-10-09T07:28:47.520Z,97295.66
2022-10-09T07:31:15.841Z,97296.81
2022-10-09T07:33:43.818Z,97299.13
2022-10-09T07:36:13.265Z,97307.59
2022-10-09T07:38:41.457Z,97286.19
2022-10-09T07:41:10.614Z,97306.13
2022-10-09T07:43:39.679Z,97305.59
2022-10-09T07:46:08.787Z,97308.56
2022-10-09T07:48:36.839Z,97326.22
2022-10-09T07:51:09.310Z,97312.53
2022-10-09T07:53:39.316Z,97313.97
2022-10-09T07:56:08.004Z,97320.38
2022-10-09T07:58:35.984Z,97319.31
2022-10-09T08:01:07.444Z,97308.81
2022-10-09T08:03:35.821Z,97317.72
2022-10-09T08:06:03.852Z,97307.13
2022-10-09T08:08:32.001Z,97304.56
2022-10-09T08:11:01.497Z,97287.25
2022-10-09T08:13:29.516Z,97299.63
2022-10-09T08:15:59.064Z,97293.50
2022-10-09T08:18:26.961Z,97305.78
2022-10-09T08:20:59.641Z,97304.25
2022-10-09T08:23:27.602Z,97302.47
2022-10-09T08:25:55.758Z,97298.72
2022-10-09T08:28:25.505Z,97286.00
2022-10-09T08:30:53.467Z,97307.06
2022-10-09T08:33:22.183Z,97295.53
2022-10-09T08:35:50.238Z,97310.66
2022-10-09T08:38:44.837Z,97308.72
2022-10-09T08:41:09.076Z,97309.78
2022-10-09T08:43:42.412Z,97304.13
2022-10-09T08:46:20.509Z,97309.28
2022-10-09T08:48:49.740Z,97304.47
2022-10-09T08:51:22.314Z,97304.94
2022-10-09T08:53:53.625Z,97295.53
2022-10-09T08:56:21.701Z,97304.22
2022-10-09T08:58:50.985Z,97313.00
2022-10-09T09:01:24.639Z,97298.50
2022-10-09T09:04:08.796Z,97313.19
2022-10-09T09:06:42.165Z,97312.09
2022-10-09T09:09:14.877Z,97315.19
2022-10-09T09:11:51.160Z,97314.00
2022-10-09T09:14:30.454Z,97311.38
2022-10-09T09:17:00.491Z,97312.03
2022-10-09T09:19:42.178Z,97318.97
2022-10-09T09:22:11.804Z,97311.78
2022-10-09T09:24:42.278Z,97306.28
2022-10-09T09:27:13.360Z,97297.84
2022-10-09T09:29:46.270Z,97308.94
2022-10-09T09:32:19.166Z,97309.13
2022-10-09T09:34:47.294Z,97289.75
2022-10-09T09:37:15.479Z,97294.69
2022-10-09T09:40:34.436Z,97290.25
2022-10-09T09:42:32.007Z,97294.69
2022-10-09T09:45:04.773Z,97288.94
2022-10-09T09:47:36.183Z,97288.25
2022-10-09T09:50:12.153Z,97283.84
2022-10-09T09:52:47.359Z,97290.53
2022-10-09T09:55:25.355Z,97279.25
2022-10-09T09:57:53.299Z,97283.75
2022-10-09T10:00:24.598Z,97290.19
2022-10-09T10:03:03.456Z,97273.28
2022-10-09T10:05:36.419Z,97281.47
2022-10-09T10:08:15.447Z,97281.16
2022-10-09T10:10:46.285Z,97279.66
2022-10-09T10:13:16.802Z,97274.94
2022-10-09T10:15:51.961Z,97276.34
2022-10-09T10:18:20.720Z,97262.88
2022-10-09T10:20:49.989Z,97272.97
2022-10-09T10:23:24.732Z,97270.56
2022-10-09T10:25:54.214Z,97265.66
2022-10-09T10:28:25.995Z,97260.78
2022-10-09T10:30:56.926Z,97254.13
2022-10-09T10:33:28.560Z,97252.34
2022-10-09T10:35:57.485Z,97245.41
2022-10-09T10:38:31.091Z,97247.50
2022-10-09T10:41:06.583Z,97256.84
2022-10-09T10:43:39.422Z,97244.28
2022-10-09T10:46:14.230Z,97247.09
2022-10-09T10:48:45.597Z,97233.81
2022-10-09T10:51:40.545Z,97237.41
2022-10-09T10:54:19.021Z,97240.69
2022-10-09T10:56:49.517Z,97242.56
2022-10-09T10:59:30.698Z,97241.00
2022-10-09T11:02:26.356Z,97231.72
2022-10-09T11:04:56.427Z,97228.50
2022-10-09T11:07:31.508Z,97233.16
2022-10-09T11:10:06.564Z,97227.84
2022-10-09T11:12:48.090Z,97224.00
2022-10-09T11:15:22.135Z,97224.97
2022-10-09T11:17:57.273Z,97219.81
2022-10-09T11:20:44.824Z,97212.16
2022-10-09T11:23:18.829Z,97212.44
2022-10-09T11:25:52.393Z,97210.34
2022-10-09T11:28:23.703Z,97216.91
2022-10-09T11:30:55.637Z,97216.47
2022-10-09T11:33:30.960Z,97215.09
2022-10-09T11:36:02.894Z,97202.47
2022-10-09T11:38:33.436Z,97192.81
2022-10-09T11:41:06.423Z,97195.81
2022-10-09T11:43:44.798Z,97185.66
2022-10-09T11:46:19.382Z,97182.78
2022-10-09T11:48:53.582Z,97186.44
2022-10-09T11:51:28.715Z,97179.44
2022-10-09T11:53:57.033Z,97173.75
2022-10-09T11:56:27.028Z,97173.56
2022-10-09T11:58:59.514Z,97167.63
2022-10-09T12:01:31.046Z,97174.31
2022-10-09T12:04:07.019Z,97158.63
2022-10-09T12:06:46.546Z,97153.47
2022-10-09T12:09:21.518Z,97153.22
2022-10-09T12:11:56.661Z,97137.19
2022-10-09T12:14:26.978Z,97148.41
2022-10-09T12:16:55.178Z,97144.09
2022-10-09T12:19:26.972Z,97131.00
2022-10-09T12:22:02.205Z,97139.50
2022-10-09T12:24:34.037Z,97134.03
2022-10-09T12:27:04.213Z,97123.91
2022-10-09T12:29:35.704Z,97125.91
2022-10-09T12:32:06.844Z,97122.97
2022-10-09T12:34:39.725Z,97125.91
2022-10-09T12:37:15.611Z,97119.97
2022-10-09T12:39:48.748Z,97116.75
2022-10-09T12:42:20.005Z,97121.94
2022-10-09T12:44:49.050Z,97113.94
2022-10-09T12:47:20.484Z,97117.31
2022-10-09T12:50:04.846Z,97099.44
2022-10-09T12:52:33.562Z,97097.41
2022-10-09T12:55:02.485Z,97097.75
2022-10-09T12:57:30.545Z,97088.09
2022-10-09T12:59:58.885Z,97088.00
2022-10-09T13:02:26.920Z,97084.94
2022-10-09T13:05:02.172Z,97085.13
2022-10-09T13:07:32.511Z,97087.63
2022-10-09T13:10:03.957Z,97083.59
2022-10-09T13:12:32.564Z,97083.69
2022-10-09T13:15:01.388Z,97089.53
2022-10-09T13:17:33.695Z,97081.31
2022-10-09T13:20:05.669Z,97084.09
2022-10-09T13:22:35.849Z,97082.16
2022-10-09T13:25:04.174Z,97074.91
2022-10-09T13:27:34.958Z,97064.78
2022-10-09T13:30:03.312Z,97071.38
2022-10-09T13:32:31.358Z,97073.63
2022-10-09T13:35:00.376Z,97074.94
2022-10-09T13:37:29.675Z,97070.00
2022-10-09T13:39:59.601Z,97077.97
2022-10-09T13:42:29.471Z,97070.13
2022-10-09T13:44:57.486Z,97067.97
2022-10-09T13:47:25.390Z,97065.44
2022-10-09T13:49:53.310Z,97065.66
2022-10-09T13:52:21.204Z,97057.44
2022-10-09T13:54:50.459Z,97065.13
2022-10-09T13:57:18.417Z,97046.84
2022-10-09T13:59:46.276Z,97039.84
2022-10-09T14:02:14.371Z,97044.38
2022-10-09T14:04:42.664Z,97037.56
2022-10-09T14:07:10.589Z,97035.72
2022-10-09T14:09:38.788Z,97034.59
2022-10-09T14:12:08.145Z,97030.22
2022-10-09T14:14:36.290Z,97029.56
2022-10-09T14:17:04.213Z,97020.63
2022-10-09T14:19:32.221Z,97029.78
2022-10-09T14:22:00.094Z,97028.34
2022-10-09T14:24:28.156Z,97018.25
2022-10-09T14:26:56.042Z,97017.63
2022-10-09T14:29:25.412Z,97008.00
2022-10-09T14:31:53.324Z,97009.19
2022-10-09T14:34:21.933Z,96999.88
2022-10-09T14:36:49.991Z,97009.94
2022-10-09T14:39:17.979Z,97010.63
2022-10-09T14:41:45.924Z,96996.69
2022-10-09T14:44:13.991Z,97011.28
2022-10-09T14:46:43.257Z,96994.84
2022-10-09T14:49:11.684Z,96991.34
2022-10-09T14:51:40.991Z,96995.38
2022-10-09T14:54:10.020Z,96989.41
2022-10-09T14:56:37.966Z,96988.25
2022-10-09T14:59:06.920Z,96982.00
2022-10-09T15:01:35.730Z,96980.78
2022-10-09T15:04:05.872Z,96982.28
2022-10-09T15:06:34.585Z,96978.00
2022-10-09T15:09:05.516Z,96980.75
2022-10-09T15:11:35.071Z,96982.19
2022-10-09T15:14:03.537Z,96973.03
2022-10-09T15:16:31.433Z,96977.53
2022-10-09T15:18:59.424Z,96980.28
2022-10-09T15:21:30.595Z,96980.78
2022-10-09T15:24:00.230Z,96978.09
2022-10-09T15:26:29.824Z,96976.84
2022-10-09T15:28:57.831Z,96978.34
2022-10-09T15:31:28.077Z,96982.31
2022-10-09T15:33:57.438Z,96983.31
2022-10-09T15:36:26.124Z,96992.53
2022-10-09T15:38:55.390Z,96993.25
2022-10-09T15:41:24.947Z,96988.16
2022-10-09T15:43:54.680Z,96981.88
2022-10-09T15:46:22.689Z,96978.47
2022-10-09T15:48:50.925Z,96978.28
2022-10-09T15:51:19.234Z,96971.44
2022-10-09T15:53:48.376Z,96968.34
2022-10-09T15:56:19.753Z,96970.72
2022-10-09T15:58:47.649Z,96967.41
2022-10-09T16:01:17.055Z,96973.09
2022-10-09T16:03:45.546Z,96969.34
2022-10-09T16:06:15.022Z,96971.81
2022-10-09T16:08:43.661Z,96973.38
2022-10-09T16:11:13.833Z,96970.09
2022-10-09T16:13:46.023Z,96974.59
2022-10-09T16:16:15.766Z,96973.50
2022-10-09T16:18:43.733Z,96964.53
2022-10-09T16:21:14.062Z,96973.56
2022-10-09T16:23:42.138Z,96969.94
2022-10-09T16:26:10.243Z,96969.81
2022-10-09T16:28:38.327Z,96979.06
2022-10-09T16:31:07.777Z,96986.72
2022-10-09T16:33:35.718Z,96973.56
2022-10-09T16:36:11.212Z,96985.81
2022-10-09T16:38:39.174Z,96980.56
2022-10-09T16:41:09.013Z,96987.31
2022-10-09T16:43:37.501Z,96986.78
2022-10-09T16:46:16.490Z,96989.63
2022-10-09T16:48:44.368Z,96988.34
2022-10-09T16:51:13.345Z,96995.63
2022-10-09T16:53:42.059Z,96997.88
2022-10-09T16:56:11.931Z,96994.25
2022-10-09T16:58:39.951Z,97001.19
2022-10-09T17:01:10.072Z,96989.78
2022-10-09T17:03:41.357Z,97003.44
2022-10-09T17:06:10.841Z,97004.28
2022-10-09T17:08:39.110Z,96996.19
2022-10-09T17:11:08.280Z,96994.31
2022-10-09T17:13:36.234Z,96988.88
2022-10-09T17:16:06.316Z,96981.25
2022-10-09T17:18:34.206Z,96987.34
2022-10-09T17:21:04.238Z,96984.84
2022-10-09T17:23:32.209Z,96991.47
2022-10-09T17:26:00.648Z,96985.75
2022-10-09T17:28:28.574Z,96991.16
2022-10-09T17:30:56.524Z,96989.03
2022-10-09T17:33:24.554Z,96981.88
2022-10-09T17:35:52.442Z,96982.56
2022-10-09T17:38:21.727Z,96985.59
2022-10-09T17:40:49.628Z,96979.03
2022-10-09T17:43:17.604Z,96981.88
2022-10-09T17:45:46.857Z,96977.88
2022-10-09T17:48:14.764Z,96977.66
2022-10-09T17:50:51.481Z,96970.78
2022-10-09T17:53:22.635Z,96973.56
2022-10-09T17:55:50.925Z,96971.94
2022-10-09T17:58:19.301Z,96965.38
2022-10-09T18:00:47.903Z,96967.63
2022-10-09T18:03:16.215Z,96967.03
2022-10-09T18:05:44.911Z,96963.16
2022-10-09T18:08:13.229Z,96970.47
2022-10-09T18:10:42.855Z,96966.19
2022-10-09T18:13:11.868Z,96964.44
2022-10-09T18:15:40.219Z,96965.31
2022-10-09T18:18:08.940Z,96969.47
2022-10-09T18:20:37.604Z,96953.88
2022-10-09T18:23:06.176Z,96954.53
2022-10-09T18:25:34.371Z,96952.28
2022-10-09T18:28:03.741Z,96953.19
2022-10-09T18:30:31.738Z,96952.28
2022-10-09T18:32:59.756Z,96951.78
2022-10-09T18:35:30.363Z,96954.66
2022-10-09T18:37:58.229Z,96950.16
2022-10-09T18:40:26.086Z,96941.00
2022-10-09T18:42:53.966Z,96937.44
2022-10-09T18:45:23.293Z,96932.53
2022-10-09T18:47:52.231Z,96939.31
2022-10-09T18:50:20.156Z,96929.69
2022-10-09T18:52:48.344Z,96932.91
2022-10-09T18:55:18.682Z,96931.50
2022-10-09T18:57:47.495Z,96931.94
2022-10-09T19:00:16.268Z,96924.78
2022-10-09T19:02:45.502Z,96934.78
2022-10-09T19:05:13.389Z,96930.81
2022-10-09T19:07:41.625Z,96931.78
2022-10-09T19:10:10.204Z,96931.31
2022-10-09T19:12:38.078Z,96931.63
2022-10-09T19:15:11.709Z,96928.09
2022-10-09T19:17:40.540Z,96940.28
2022-10-09T19:20:10.342Z,96935.75
2022-10-09T19:22:38.207Z,96926.25
2022-10-09T19:25:06.962Z,96924.09
2022-10-09T19:27:35.007Z,96933.44
2022-10-09T19:30:03.222Z,96937.25
2022-10-09T19:32:31.152Z,96929.25
2022-10-09T19:34:59.055Z,96936.25
2022-10-09T19:37:29.854Z,96928.00
2022-10-09T19:39:58.140Z,96929.16
2022-10-09T19:42:26.016Z,96929.84
2022-10-09T19:44:53.964Z,96925.28
2022-10-09T19:47:23.678Z,96930.81
2022-10-09T19:49:51.586Z,96920.31
2022-10-09T19:52:20.081Z,96928.84
2022-10-09T19:54:49.462Z,96917.31
2022-10-09T19:57:17.362Z,96923.81
2022-10-09T19:59:45.483Z,96916.88
2022-10-09T20:02:13.408Z,96914.78
2022-10-09T20:04:41.461Z,96910.63
2022-10-09T20:07:12.661Z,96913.75
2022-10-09T20:09:41.176Z,96907.69
2022-10-09T20:12:10.509Z,96899.38
2022-10-09T20:14:38.441Z,96911.38
2022-10-09T20:17:06.423Z,96898.81
2022-10-09T20:19:34.297Z,96905.56
2022-10-09T20:22:02.257Z,96909.63
2022-10-09T20:24:30.229Z,96898.88
2022-10-09T20:26:58.177Z,96905.56
2022-10-09T20:29:27.989Z,96903.31
2022-10-09T20:31:56.142Z,96898.34
2022-10-09T20:34:26.879Z,96898.50
2022-10-09T20:36:55.425Z,96900.88
2022-10-09T20:39:23.365Z,96900.44
2022-10-09T20:41:52.061Z,96896.75
2022-10-09T20:44:19.948Z,96899.41
2022-10-09T20:46:49.431Z,96889.69
2022-10-09T20:49:17.352Z,96889.44
2022-10-09T20:51:45.241Z,96888.31
2022-10-09T20:54:18.006Z,96892.13
2022-10-09T20:56:45.938Z,96884.41
2022-10-09T20:59:14.356Z,96886.75
2022-10-09T21:01:42.344Z,96887.72
2022-10-09T21:04:12.248Z,96880.06
2022-10-09T21:06:40.360Z,96879.63
2022-10-09T21:09:08.819Z,96884.13
2022-10-09T21:11:36.957Z,96876.84
2022-10-09T21:14:05.041Z,96876.34
2022-10-09T21:16:33.039Z,96867.88
2022-10-09T21:19:02.478Z,96871.59
2022-10-09T21:21:32.170Z,96878.34
2022-10-09T21:24:01.205Z,96875.28
2022-10-09T21:26:29.973Z,96866.28
2022-10-09T21:28:59.859Z,96867.84
2022-10-09T21:31:29.974Z,96864.16
2022-10-09T21:33:58.368Z,96872.25
2022-10-09T21:36:33.986Z,96869.56
2022-10-09T21:39:02.173Z,96867.72
2022-10-09T21:41:30.080Z,96868.00
2022-10-09T21:43:57.960Z,96863.09
2022-10-09T21:46:26.184Z,96864.19
2022-10-09T21:48:54.293Z,96856.06
2022-10-09T21:51:22.272Z,96859.03
2022-10-09T21:53:51.516Z,96847.09
2022-10-09T21:56:19.426Z,96842.31
2022-10-09T21:58:49.136Z,96840.84
2022-10-09T22:01:17.816Z,96839.00
2022-10-09T22:03:45.876Z,96825.34
2022-10-09T22:06:18.981Z,96826.06
2022-10-09T22:08:47.949Z,96833.53
2022-10-09T22:11:17.616Z,96833.88
2022-10-09T22:13:45.580Z,96822.56
2022-10-09T22:16:15.683Z,96812.53
2022-10-09T22:18:44.324Z,96816.59
2022-10-09T22:21:14.452Z,96821.69
2022-10-09T22:23:43.041Z,96818.13
2022-10-09T22:26:12.837Z,96802.72
2022-10-09T22:28:42.439Z,96805.97
2022-10-09T22:31:14.126Z,96805.47
2022-10-09T22:33:42.181Z,96794.44
2022-10-09T22:36:12.260Z,96785.53
2022-10-09T22:38:40.632Z,96784.03
2022-10-09T22:41:10.558Z,96789.84
2022-10-09T22:43:39.977Z,96781.13
2022-10-09T22:46:14.401Z,96783.78
2022-10-09T22:48:42.582Z,96781.81
2022-10-09T22:51:12.510Z,96778.16
2022-10-09T22:53:41.774Z,96783.00
2022-10-09T22:56:11.210Z,96766.69
2022-10-09T22:58:39.105Z,96775.31
2022-10-09T23:01:08.484Z,96770.72
2022-10-09T23:03:37.865Z,96772.34
2022-10-09T23:06:07.864Z,96776.41
2022-10-09T23:08:35.761Z,96778.44
2022-10-09T23:11:03.682Z,96767.13
2022-10-09T23:13:31.605Z,96766.84
2022-10-09T23:16:00.977Z,96761.75
2022-10-09T23:18:29.662Z,96763.59
2022-10-09T23:20:59.170Z,96754.94
2022-10-09T23:23:29.058Z,96755.19
2022-10-09T23:25:56.985Z,96753.00
2022-10-09T23:28:27.618Z,96755.97
2022-10-09T23:31:01.816Z,96754.69
2022-10-09T23:33:29.739Z,96750.91
2022-10-09T23:35:59.096Z,96744.53
2022-10-09T23:38:26.971Z,96734.75
2022-10-09T23:40:58.777Z,96738.34
2022-10-09T23:43:27.181Z,96735.22
2022-10-09T23:45:56.513Z,96734.34
2022-10-09T23:48:24.452Z,96741.19
2022-10-09T23:50:53.128Z,96729.38
2022-10-09T23:53:22.744Z,96732.50
2022-10-09T23:55:50.957Z,96728.38
2022-10-09T23:58:21.020Z,96725.97
